Amherst, OH (44001)

1:59 AM EDT on May 27, 2015 (GMT -0400)
Amherst Township | | Change Station
CLOSE
Current Station
Personal Weather Station
Location: Amherst, OH
Elevation: 725 ft
Nearby Weather Stations

Elev 725 ft 41.40 °N, 82.21 °W | Updated 26 seconds ago

Overcast
Overcast
68.9 °F
Feels Like 68.9 °F
N
4.0
Wind Variable Wind from South
Gusts 11.0 mph

Today
High -- | Low -- °F
--% Chance of Precip.
Yesterday
High -- | Low -- °F
Precip. -- in
6:00 AM 8:51 PM
Waxing Gibbous, 64% visible
Pressure 29.98 in
Visibility 10.0 miles
Clouds Scattered Clouds 1600 ft
Scattered Clouds 7500 ft
Overcast 10000 ft
Dew Point 67 °F
Humidity 94%
Rainfall 0.00 in
Snow Depth Not available.
UV 0 out of 12
Pollen 7.30 out of 12
Air Quality Not available.
Flu Activity Local Activity
METAR KLPR 270553Z AUTO 21011KT 10SM SCT016 SCT075 OVC100 20/18 A2999 RMK AO2 SLP150 60005 T02000183 10244 20200 58001 TSNO

More Conditions Fewer Conditions

Pressure 29.98 in
Visibility 10.0 miles
Clouds Scattered Clouds 1600 ft
Scattered Clouds 7500 ft
Overcast 10000 ft
Dew Point 67 °F
Humidity 94%
Rainfall 0.00 in
Snow Depth Not available.
UV 0 out of 12
Pollen 7.30 out of 12
Air Quality Not available.
Flu Activity Local Activity
METAR KLPR 270553Z AUTO 21011KT 10SM SCT016 SCT075 OVC100 20/18 A2999 RMK AO2 SLP150 60005 T02000183 10244 20200 58001 TSNO

More Conditions Fewer Conditions

10-Day Weather Forecast

Almanac

Astronomy

May. 27, 2015 Rise Set
Actual Time
Civil Twilight
Nautical Twilight
Astronomical Twilight
Moon
Length of Visible Light
Length of Day
Tomorrow will be .
, % of the Moon is Illuminated

Today's Extremes

State Highs State Lows

Community

WunderPhotos

Upload Photos

1,824,617 photos uploaded!

WunderBlogs® & News

Nearby

Air Quality

  Air Quality AQ Index Pollutant
Not available.

Snow Depth

Station Depth Elevation

Earthquake Activity

City Distance Mag. Time & Date
Minimum magnitude displayed is 2.5.

Coastal Water Temperatures

Place Temperature

Stations

Nearby Weather Stations

Station Location Temp. Windchill Dew Point Humidity Wind Precip. Elev Updated Type